Time;durP1;ratioP1;P1;durP2;ratioP2;P2;SDS_P1;SDS_P2;PMS_P1;PMS_P2;Temp;Humidity;BMP_temperature;BMP_pressure;BME280_temperature;BME280_humidity;BME280_pressure;Samples;Min_cycle;Max_cycle;Signal;HPM_P1;HPM_P2
2023/07/31 02:46:51;;;;;;;;;;;20.10;82.30;;;19.58;74.72;95835.84;4886431;29;19951;-88
2023/07/31 02:49:24;;;;;;;;;;;20.20;82.30;;;19.58;74.65;95835.84;4901135;29;19934;-88
2023/07/31 02:54:52;;;;;;;;;;;20.20;82.10;;;19.57;74.54;95834.22;4874388;29;19927;-88
2023/07/31 03:00:16;;;;;;;;;;;20.20;82.00;;;19.60;74.54;95850.22;4874392;29;19935;-88
2023/07/31 03:06:43;;;;;;;;;;;20.20;81.90;;;19.61;74.53;95837.97;4820623;29;19932;-88
2023/07/31 03:09:27;;;;;;;;;;;20.20;81.90;;;19.59;74.58;95837.47;4844502;29;20409;-88
2023/07/31 09:40:05;;;;;;;;;;;22.00;76.10;;;21.35;69.80;95943.41;5743129;23;19935;-88
2023/07/31 09:43:31;;;;;;;;;;;22.00;77.40;;;21.29;70.45;95934.47;4894931;29;20390;-88
2023/07/31 09:46:02;;;;;;;;;;;21.90;77.20;;;21.26;70.52;95932.38;4898663;29;19932;-87
2023/07/31 09:48:32;;;;;;;;;;;21.90;77.10;;;21.19;70.77;95932.94;4890163;29;19931;-88
2023/07/31 09:51:38;;;;;;;;;;;;;;;;;;;;;
2023/07/31 09:58:54;;;;;;;;;;;21.70;78.30;;;20.96;72.05;95929.81;4839201;29;19932;-87
2023/07/31 10:01:45;;;;;;;;;;;21.60;78.60;;;20.96;72.19;95932.59;4908256;29;20287;-87
2023/07/31 11:35:46;;;;;;;;;;;21.90;77.80;;;21.33;70.92;95856.63;2839477;23;20204;-93
2023/07/31 11:38:35;;;;;;;;;;;21.90;77.60;;;21.32;71.03;95855.81;4900434;29;19935;-87
2023/07/31 11:41:03;;;;;;;;;;;22.00;77.50;;;21.33;70.85;95851.88;4906777;29;20436;-87
2023/07/31 11:43:32;;;;;;;;;;;22.00;77.60;;;21.35;71.06;95852.34;4922327;29;19931;-86
2023/07/31 11:46:03;;;;;;;;;;;22.00;77.60;;;21.35;70.88;95852.34;4907652;29;20606;-86
2023/07/31 11:48:37;;;;;;;;;;;22.00;77.90;;;21.37;70.92;95847.22;4910408;29;19934;-86
2023/07/31 11:51:10;;;;;;;;;;;22.00;78.00;;;21.38;71.40;95846.06;4894906;29;20306;-87
2023/07/31 11:53:41;;;;;;;;;;;22.00;78.00;;;21.38;71.25;95840.47;4895086;29;20417;-86
2023/07/31 11:56:11;;;;;;;;;;;22.00;77.90;;;21.39;71.20;95833.75;4910319;29;20313;-87
2023/07/31 11:58:43;;;;;;;;;;;22.00;78.00;;;21.41;71.10;95833.44;4895286;29;19927;-87
2023/07/31 12:01:11;;;;;;;;;;;22.00;77.70;;;21.42;70.87;95833.06;4910647;29;19938;-87
2023/07/31 12:03:39;;;;;;;;;;;22.00;77.60;;;21.43;70.78;95831.06;4894520;29;20502;-87
2023/07/31 12:06:10;;;;;;;;;;;22.10;77.60;;;21.43;70.92;95829.13;4894958;29;19927;-87
2023/07/31 12:08:41;;;;;;;;;;;22.10;77.50;;;21.42;70.73;95830.28;4910447;29;19927;-86
2023/07/31 12:11:10;;;;;;;;;;;22.00;77.40;;;21.42;70.97;95827.50;4910141;29;19926;-87
2023/07/31 12:13:38;;;;;;;;;;;22.00;77.50;;;21.40;70.71;95821.47;4894774;29;20290;-86
2023/07/31 12:16:06;;;;;;;;;;;22.00;77.60;;;21.39;70.81;95825.41;4910212;29;20309;-87
2023/07/31 12:18:37;;;;;;;;;;;22.10;77.60;;;21.43;70.47;95842.22;4887038;29;19950;-87
2023/07/31 12:21:06;;;;;;;;;;;22.10;77.30;;;21.43;70.52;95836.66;4906932;29;19927;-87
2023/07/31 12:23:38;;;;;;;;;;;22.00;77.30;;;21.43;70.51;95834.69;4876630;29;19927;-87
2023/07/31 12:26:08;;;;;;;;;;;22.10;77.30;;;21.44;70.64;95836.31;4891146;29;19927;-87
2023/07/31 12:28:36;;;;;;;;;;;22.10;77.30;;;21.44;70.61;95827.13;4876290;29;19927;-87
2023/07/31 12:31:05;;;;;;;;;;;22.10;77.20;;;21.45;70.42;95837.09;4890734;29;20387;-87
2023/07/31 12:33:34;;;;;;;;;;;22.10;77.20;;;21.46;70.44;95836.78;4888433;29;19927;-87
2023/07/31 12:36:02;;;;;;;;;;;22.10;77.40;;;21.50;70.94;95847.19;4879503;29;19939;-87
2023/07/31 12:38:31;;;;;;;;;;;22.10;77.60;;;21.49;70.56;95834.47;4869948;29;19932;-87
2023/07/31 12:41:01;;;;;;;;;;;22.10;77.40;;;21.48;70.51;95833.63;4890644;29;19927;-88
2023/07/31 12:43:29;;;;;;;;;;;22.10;77.30;;;21.49;70.79;95834.47;4891254;29;19928;-87
2023/07/31 12:45:57;;;;;;;;;;;22.10;77.40;;;21.49;70.81;95834.47;4875312;29;19935;-87
2023/07/31 12:48:26;;;;;;;;;;;22.10;77.70;;;21.48;71.02;95835.63;4875129;29;20406;-86
2023/07/31 12:50:54;;;;;;;;;;;22.10;77.50;;;21.49;70.92;95823.31;4890374;29;20659;-87
2023/07/31 12:53:25;;;;;;;;;;;22.10;78.40;;;21.46;70.83;95820.06;4875202;29;19931;-87
2023/07/31 12:55:53;;;;;;;;;;;22.10;77.60;;;21.44;70.80;95808.47;4890436;29;19934;-87
2023/07/31 12:58:23;;;;;;;;;;;22.10;77.60;;;21.43;69.62;95801.28;4874306;29;19938;-87
2023/07/31 13:00:51;;;;;;;;;;;22.10;76.30;;;21.43;70.17;95806.00;4874815;29;19958;-87
2023/07/31 13:03:19;;;;;;;;;;;22.10;76.80;;;21.43;70.38;95798.50;4874786;29;19934;-87
2023/07/31 13:05:49;;;;;;;;;;;22.10;76.90;;;21.43;70.11;95803.22;4874851;29;19935;-87
2023/07/31 13:08:17;;;;;;;;;;;22.00;76.80;;;21.42;70.31;95802.44;4888559;29;19955;-87
2023/07/31 13:10:45;;;;;;;;;;;22.10;76.90;;;21.39;70.17;95797.56;4874655;29;19943;-87
2023/07/31 13:13:13;;;;;;;;;;;22.10;76.70;;;21.39;70.21;95791.19;4874473;29;19934;-87
2023/07/31 13:15:44;;;;;;;;;;;22.10;76.80;;;21.42;69.96;95799.66;4890518;29;19931;-87
2023/07/31 13:18:12;;;;;;;;;;;22.00;76.60;;;21.38;69.92;95795.94;4890288;29;19931;-87
2023/07/31 13:20:40;;;;;;;;;;;22.00;76.60;;;21.39;70.03;95797.56;4890547;29;20303;-87
2023/07/31 13:23:08;;;;;;;;;;;22.00;76.70;;;21.36;70.27;95798.28;4905687;29;19931;-87
2023/07/31 13:25:36;;;;;;;;;;;22.00;76.80;;;21.36;70.07;95803.84;4879347;29;20403;-87
2023/07/31 13:28:05;;;;;;;;;;;22.00;76.70;;;21.35;69.97;95807.78;4874578;29;20318;-87
2023/07/31 13:30:33;;;;;;;;;;;22.00;76.70;;;21.34;70.06;95789.47;4890140;29;19927;-87
2023/07/31 13:33:03;;;;;;;;;;;22.00;76.50;;;21.34;69.96;95789.47;4911481;29;19938;-87
2023/07/31 13:35:32;;;;;;;;;;;22.00;76.50;;;21.37;69.86;95801.88;4879325;29;19939;-87
2023/07/31 13:38:00;;;;;;;;;;;22.00;76.50;;;21.37;69.98;95805.44;4874350;29;19932;-87
2023/07/31 13:40:28;;;;;;;;;;;22.00;76.50;;;21.39;70.20;95802.31;4880819;29;19943;-87
2023/07/31 13:42:56;;;;;;;;;;;22.00;76.60;;;21.40;69.66;95803.94;4889951;29;19931;-87
2023/07/31 13:45:25;;;;;;;;;;;22.10;76.50;;;21.40;69.93;95812.31;4889869;29;20314;-87
2023/07/31 13:47:53;;;;;;;;;;;22.10;76.50;;;21.42;69.79;95812.78;4889765;29;19934;-87
2023/07/31 13:50:25;;;;;;;;;;;22.10;76.30;;;21.43;69.75;95820.75;4874225;29;19954;-87
2023/07/31 13:52:56;;;;;;;;;;;22.10;76.30;;;21.43;69.54;95808.81;4882156;29;19934;-86
2023/07/31 13:55:24;;;;;;;;;;;22.10;76.20;;;21.41;69.63;95803.59;4874159;29;19927;-86
2023/07/31 13:57:53;;;;;;;;;;;22.10;76.20;;;21.42;69.54;95801.63;4905182;29;19927;-87
2023/07/31 14:00:21;;;;;;;;;;;22.10;76.10;;;21.42;69.23;95798.84;4889770;29;19947;-86
2023/07/31 14:02:52;;;;;;;;;;;22.10;76.00;;;21.41;69.46;95795.25;4889725;29;19934;-87
2023/07/31 14:05:22;;;;;;;;;;;22.10;76.00;;;21.41;69.52;95800.00;4889586;29;19938;-86
2023/07/31 14:07:50;;;;;;;;;;;22.10;76.00;;;21.38;69.20;95795.94;4874132;29;19927;-87
2023/07/31 14:10:18;;;;;;;;;;;22.00;75.80;;;21.38;69.26;95806.28;4872846;29;19927;-87
2023/07/31 14:12:46;;;;;;;;;;;22.00;75.70;;;21.38;69.46;95806.28;4873744;29;19927;-87
2023/07/31 14:15:14;;;;;;;;;;;22.00;75.80;;;21.36;69.22;95803.03;4873819;29;19958;-87
2023/07/31 14:17:43;;;;;;;;;;;22.00;75.60;;;21.36;69.00;95814.16;4873831;29;19939;-87
2023/07/31 14:20:12;;;;;;;;;;;22.00;75.60;;;21.35;68.89;95818.94;4905905;29;19927;-86
2023/07/31 14:22:42;;;;;;;;;;;22.00;75.60;;;21.33;69.09;95815.69;4873429;29;19934;-87
2023/07/31 14:25:10;;;;;;;;;;;22.00;75.80;;;21.35;69.33;95816.16;4888257;29;20275;-87
2023/07/31 14:27:38;;;;;;;;;;;22.00;75.80;;;21.33;69.16;95810.13;4873716;29;20421;-87
2023/07/31 14:30:08;;;;;;;;;;;22.00;75.80;;;21.36;69.14;95814.16;4887377;29;20422;-86
2023/07/31 14:32:40;;;;;;;;;;;22.00;75.80;;;21.36;69.21;95815.00;4876863;29;19934;-87
2023/07/31 14:35:12;;;;;;;;;;;22.00;76.00;;;21.35;69.41;95818.09;4892745;29;19934;-87
2023/07/31 14:37:45;;;;;;;;;;;22.00;76.10;;;21.38;69.63;95825.75;4892927;29;19933;-86
2023/07/31 14:40:13;;;;;;;;;;;22.00;76.20;;;21.37;69.25;95822.16;4893152;29;19931;-86
2023/07/31 14:42:41;;;;;;;;;;;22.00;75.90;;;21.39;68.72;95830.19;4892132;29;19996;-86
2023/07/31 14:45:11;;;;;;;;;;;22.00;75.20;;;21.36;69.23;95823.34;4908067;29;19927;-86
2023/07/31 14:47:39;;;;;;;;;;;22.00;75.60;;;21.35;69.13;95824.50;4892665;29;20394;-87
2023/07/31 14:50:10;;;;;;;;;;;22.00;75.60;;;21.34;69.35;95825.66;4908286;29;19931;-86
2023/07/31 14:52:38;;;;;;;;;;;22.00;75.60;;;21.34;69.32;95817.31;4907759;29;19926;-86
2023/07/31 14:55:09;;;;;;;;;;;22.00;75.80;;;21.34;69.23;95816.47;4923949;29;19927;-87
2023/07/31 14:57:38;;;;;;;;;;;22.00;75.90;;;21.32;69.22;95808.50;4892595;29;19927;-87
2023/07/31 15:00:08;;;;;;;;;;;22.00;75.90;;;21.31;69.25;95810.44;4892707;29;19927;-87
2023/07/31 15:02:36;;;;;;;;;;;22.00;75.90;;;21.30;69.52;95817.16;4892140;29;19927;-87
2023/07/31 15:05:05;;;;;;;;;;;22.00;76.00;;;21.29;69.54;95809.19;4908008;29;19927;-87
2023/07/31 15:07:33;;;;;;;;;;;22.00;76.10;;;21.29;69.85;95815.56;4892598;29;19934;-87
2023/07/31 15:10:02;;;;;;;;;;;22.00;76.40;;;21.29;69.88;95814.75;4892754;29;19927;-87
2023/07/31 15:12:32;;;;;;;;;;;22.00;76.40;;;21.28;69.63;95813.13;4922974;29;19946;-87
2023/07/31 15:15:03;;;;;;;;;;;21.90;76.50;;;21.27;69.76;95805.94;4907717;29;19926;-87
2023/07/31 15:17:33;;;;;;;;;;;21.90;77.00;;;21.25;69.88;95803.50;4908645;29;20301;-87
2023/07/31 15:20:05;;;;;;;;;;;22.00;76.50;;;21.27;69.98;95803.16;4892370;29;19935;-87
2023/07/31 15:22:33;;;;;;;;;;;21.90;76.60;;;21.28;69.88;95808.38;4906429;29;19931;-87
2023/07/31 15:25:26;;;;;;;;;;;22.00;76.50;;;21.30;69.80;95810.81;4923139;29;20386;-87
2023/07/31 15:28:09;;;;;;;;;;;22.00;76.40;;;21.30;69.64;95805.25;4892164;29;19927;-87
2023/07/31 15:30:44;;;;;;;;;;;21.90;76.40;;;21.29;69.61;95804.44;4891977;29;19926;-87
2023/07/31 15:33:13;;;;;;;;;;;22.00;76.40;;;21.30;69.95;95813.59;4897996;29;19950;-87
2023/07/31 15:35:56;;;;;;;;;;;22.00;76.50;;;21.28;69.87;95802.81;4882838;29;19928;-87
2023/07/31 15:38:37;;;;;;;;;;;22.00;76.50;;;21.29;69.74;95809.19;4885770;29;20398;-87
2023/07/31 15:41:31;;;;;;;;;;;;;;;;;;;;;
2023/07/31 15:44:56;;;;;;;;;;;22.00;76.50;;;21.27;70.00;95814.28;4873744;29;19928;-87
2023/07/31 15:47:42;;;;;;;;;;;22.00;76.50;;;21.26;69.79;95807.91;4886175;29;22202;-87
2023/07/31 15:50:52;;;;;;;;;;;21.90;76.60;;;21.26;69.79;95809.88;4888777;29;19927;-87
2023/07/31 15:54:12;;;;;;;;;;;21.90;76.50;;;21.27;69.71;95808.72;4889608;29;19934;-87
2023/07/31 16:00:24;;;;;;;;;;;21.90;76.50;;;21.21;69.73;95822.06;4894365;29;19927;-87
2023/07/31 16:11:44;;;;;;;;;;;21.80;76.50;;;21.17;70.12;95817.53;4866149;29;19928;-88
2023/07/31 16:24:24;;;;;;;;;;;21.80;77.50;;;21.11;69.94;95853.16;4788639;29;20381;-87
2023/07/31 16:27:24;;;;;;;;;;;21.80;76.90;;;21.05;69.33;95849.78;4795507;29;19928;-87
2023/07/31 16:30:08;;;;;;;;;;;21.70;76.00;;;21.00;69.39;95863.94;4724536;30;20150;-87
2023/07/31 16:32:49;;;;;;;;;;;21.70;75.90;;;20.99;68.94;95873.44;4737877;29;19932;-87
2023/07/31 16:35:17;;;;;;;;;;;21.70;75.50;;;20.97;69.47;95873.00;4815880;29;19936;-87
2023/07/31 16:37:46;;;;;;;;;;;21.60;76.20;;;20.93;69.61;95863.69;4838676;29;19932;-87
2023/07/31 16:40:14;;;;;;;;;;;21.60;76.40;;;20.90;69.25;95856.03;4884260;29;19934;-87
2023/07/31 16:42:44;;;;;;;;;;;21.50;75.90;;;20.84;69.67;95869.38;4890060;29;20037;-87
2023/07/31 16:45:12;;;;;;;;;;;21.50;76.40;;;20.76;70.09;95887.78;4874734;29;20306;-87
2023/07/31 16:47:42;;;;;;;;;;;21.40;76.60;;;20.75;70.26;95880.59;4874581;29;20291;-87
2023/07/31 16:50:11;;;;;;;;;;;21.40;77.00;;;20.73;69.95;95882.88;4852972;29;20029;-87
2023/07/31 16:52:39;;;;;;;;;;;21.40;76.50;;;20.70;70.39;95878.81;4864218;29;19934;-87
2023/07/31 16:55:08;;;;;;;;;;;21.40;77.00;;;20.68;70.04;95871.97;4891041;29;19928;-86
2023/07/31 16:57:36;;;;;;;;;;;21.40;76.80;;;20.66;70.34;95871.50;4907940;29;19927;-86
2023/07/31 17:00:07;;;;;;;;;;;21.30;77.20;;;20.65;70.59;95881.00;4906556;29;20302;-87
2023/07/31 17:02:35;;;;;;;;;;;21.30;77.30;;;20.62;70.29;95876.97;4882096;29;20410;-86
2023/07/31 17:05:04;;;;;;;;;;;21.30;77.20;;;20.60;70.42;95878.44;4884326;29;19931;-86
2023/07/31 17:07:36;;;;;;;;;;;21.30;77.40;;;20.53;70.93;95885.38;4908275;29;19934;-87
2023/07/31 17:10:05;;;;;;;;;;;21.20;77.60;;;20.51;70.80;95898.00;4893961;29;20586;-88
2023/07/31 17:12:33;;;;;;;;;;;21.10;77.80;;;20.46;71.14;95901.81;4893594;29;20310;-88
2023/07/31 17:15:01;;;;;;;;;;;21.10;78.20;;;20.46;71.25;95889.88;4893939;29;19927;-87
2023/07/31 17:17:34;;;;;;;;;;;21.00;78.20;;;20.45;71.56;95889.06;4893900;29;19926;-88
2023/07/31 17:20:04;;;;;;;;;;;21.10;78.50;;;20.46;71.56;95890.69;4909751;29;19934;-88
2023/07/31 17:22:32;;;;;;;;;;;21.10;78.40;;;20.45;71.88;95877.13;4926337;29;19927;-87
2023/07/31 17:25:00;;;;;;;;;;;21.10;78.80;;;20.42;71.67;95878.63;4893922;29;19927;-87
2023/07/31 17:27:28;;;;;;;;;;;21.10;78.70;;;20.38;71.55;95872.97;4909911;29;20382;-88
2023/07/31 17:29:57;;;;;;;;;;;21.00;78.50;;;20.34;71.69;95882.28;4908775;29;19927;-85
2023/07/31 17:32:26;;;;;;;;;;;20.90;78.70;;;20.29;72.13;95871.41;4906154;29;20408;-85
2023/07/31 17:34:55;;;;;;;;;;;20.90;79.20;;;20.29;72.00;95871.41;4908763;29;19963;-85
2023/07/31 17:37:23;;;;;;;;;;;20.90;79.10;;;20.26;71.84;95869.31;4893502;29;19935;-85
2023/07/31 17:39:51;;;;;;;;;;;20.90;79.10;;;20.27;72.02;95882.06;4893475;29;19927;-85
2023/07/31 17:42:19;;;;;;;;;;;20.90;79.20;;;20.27;71.85;95885.63;4901721;29;19927;-87
2023/07/31 17:44:48;;;;;;;;;;;20.90;78.90;;;20.28;71.77;95886.47;4894898;29;19927;-87
2023/07/31 17:47:16;;;;;;;;;;;20.90;79.00;;;20.32;71.82;95906.88;4878696;29;19934;-88
2023/07/31 17:49:44;;;;;;;;;;;20.90;79.00;;;20.33;71.75;95908.50;4889952;29;19938;-88
2023/07/31 17:52:14;;;;;;;;;;;20.90;79.00;;;20.35;71.98;95901.44;4890311;29;19927;-88
2023/07/31 17:54:42;;;;;;;;;;;21.00;79.00;;;20.34;71.82;95915.66;4890619;29;19934;-88
2023/07/31 17:57:10;;;;;;;;;;;21.00;78.80;;;20.34;71.94;95915.66;4874864;29;19934;-88
2023/07/31 17:59:38;;;;;;;;;;;21.00;79.10;;;20.30;72.16;95918.31;4874405;29;19928;-88
2023/07/31 18:02:06;;;;;;;;;;;20.90;79.30;;;20.25;72.17;95929.66;4859091;29;19927;-88
2023/07/31 18:04:34;;;;;;;;;;;20.90;79.40;;;20.22;72.73;95936.69;4889935;29;19938;-88
2023/07/31 18:07:02;;;;;;;;;;;20.90;79.70;;;20.21;72.34;95926.72;4889893;29;19934;-88
2023/07/31 18:09:34;;;;;;;;;;;20.80;79.40;;;20.15;72.23;95925.31;4874723;29;20378;-88
2023/07/31 18:12:02;;;;;;;;;;;20.80;79.40;;;20.13;72.28;95935.16;4874803;29;20425;-88
2023/07/31 18:14:32;;;;;;;;;;;20.70;79.50;;;20.06;72.64;95939.28;4890470;29;19927;-88
2023/07/31 18:17:00;;;;;;;;;;;20.70;79.80;;;20.04;72.84;95943.56;4874485;29;20313;-88
2023/07/31 18:19:28;;;;;;;;;;;20.70;80.00;;;20.01;72.41;95947.81;4874268;29;19927;-88
2023/07/31 18:21:57;;;;;;;;;;;20.70;80.00;;;20.03;72.87;95955.81;4873939;29;19927;-88
2023/07/31 18:24:25;;;;;;;;;;;20.60;80.00;;;20.02;72.71;95943.06;4874189;29;19931;-87
2023/07/31 18:26:54;;;;;;;;;;;20.60;80.00;;;19.99;72.89;95938.19;4889751;29;19927;-88
2023/07/31 18:29:22;;;;;;;;;;;20.60;80.10;;;19.96;72.96;95933.31;4889596;29;19938;-88
2023/07/31 18:31:50;;;;;;;;;;;20.60;80.10;;;19.95;73.15;95942.78;4874272;29;20301;-88
2023/07/31 18:34:19;;;;;;;;;;;20.50;80.30;;;19.92;73.04;95950.66;4874075;29;19934;-88
2023/07/31 18:36:47;;;;;;;;;;;20.50;80.40;;;19.90;73.61;95947.41;4889655;29;19931;-88
2023/07/31 18:39:15;;;;;;;;;;;20.50;80.90;;;19.89;73.87;95944.94;4889981;29;19931;-87
2023/07/31 18:41:43;;;;;;;;;;;20.50;81.20;;;19.91;73.54;95956.53;4905043;29;19928;-88
2023/07/31 18:44:12;;;;;;;;;;;20.50;81.20;;;19.93;73.60;95959.81;4873997;29;19988;-88
2023/07/31 18:46:40;;;;;;;;;;;20.50;81.10;;;19.95;73.78;95959.44;4890135;29;19935;-87
2023/07/31 18:49:09;;;;;;;;;;;20.50;81.10;;;19.95;73.83;95959.44;4904905;29;19950;-88
2023/07/31 18:51:38;;;;;;;;;;;20.50;81.00;;;19.93;73.63;95949.53;4873687;29;19934;-88
2023/07/31 18:54:06;;;;;;;;;;;20.50;81.00;;;19.95;73.49;95951.94;4888689;29;19934;-88
2023/07/31 18:56:34;;;;;;;;;;;20.60;80.80;;;19.98;73.55;95947.66;4889148;29;19935;-88
2023/07/31 18:59:02;;;;;;;;;;;20.60;80.90;;;19.99;73.46;95950.13;4889210;29;19927;-88
2023/07/31 19:01:32;;;;;;;;;;;20.60;80.70;;;19.97;73.10;95949.66;4858301;29;20279;-88
2023/07/31 19:04:00;;;;;;;;;;;20.60;80.20;;;19.99;73.04;95958.47;4873852;29;19944;-88
2023/07/31 19:06:28;;;;;;;;;;;20.60;80.40;;;19.97;72.95;95949.66;4889436;29;19950;-88
2023/07/31 19:08:57;;;;;;;;;;;20.60;80.40;;;19.97;73.02;95949.66;4873645;29;19927;-87
2023/07/31 19:11:25;;;;;;;;;;;20.60;80.20;;;19.96;73.22;95949.97;4883203;29;19928;-88
2023/07/31 19:13:53;;;;;;;;;;;20.60;80.60;;;19.95;73.47;95965.84;4873562;29;19938;-88
2023/07/31 19:16:21;;;;;;;;;;;20.50;80.80;;;19.90;73.64;95969.63;4889273;29;19928;-88
2023/07/31 19:18:51;;;;;;;;;;;20.50;80.80;;;19.88;73.54;95966.38;4873323;29;19927;-88
2023/07/31 19:21:19;;;;;;;;;;;20.50;80.80;;;19.87;73.54;95964.75;4889083;29;19934;-88
2023/07/31 19:23:47;;;;;;;;;;;20.50;80.80;;;19.86;73.38;95971.44;4905998;29;19935;-88
2023/07/31 19:26:15;;;;;;;;;;;20.40;80.60;;;19.84;73.48;95976.50;4889233;29;19931;-88
2023/07/31 19:28:43;;;;;;;;;;;20.40;80.70;;;19.82;73.42;95995.44;4889292;29;19931;-88
2023/07/31 19:31:12;;;;;;;;;;;20.40;80.80;;;19.80;73.45;95985.84;4889524;29;19927;-88
2023/07/31 19:33:40;;;;;;;;;;;20.40;80.80;;;19.77;73.20;95992.88;4891210;29;19927;-88
2023/07/31 19:36:09;;;;;;;;;;;20.40;80.60;;;19.76;73.48;95997.63;4892219;29;20313;-87
2023/07/31 19:38:38;;;;;;;;;;;20.40;80.80;;;19.77;73.43;95992.88;4907714;29;19927;-88
2023/07/31 19:41:06;;;;;;;;;;;20.40;81.00;;;19.79;73.38;95996.16;4891603;29;19931;-88
2023/07/31 19:43:34;;;;;;;;;;;20.40;80.80;;;19.81;73.18;95988.28;4892262;29;19927;-88
2023/07/31 19:46:02;;;;;;;;;;;20.40;80.40;;;19.83;73.27;95996.28;4892200;29;19927;-88
2023/07/31 19:48:30;;;;;;;;;;;20.40;80.40;;;19.83;73.15;95991.53;4892176;29;19927;-88
2023/07/31 19:50:58;;;;;;;;;;;20.40;80.20;;;19.82;73.24;95989.91;4891529;29;19974;-88
2023/07/31 19:53:28;;;;;;;;;;;20.40;80.30;;;19.84;73.14;95992.34;4923381;29;20037;-88
2023/07/31 19:55:57;;;;;;;;;;;20.40;80.40;;;19.81;73.22;95993.84;4924178;29;20397;-88
2023/07/31 19:58:26;;;;;;;;;;;20.40;80.70;;;19.79;73.29;95990.59;4907306;29;19930;-87
2023/07/31 20:00:54;;;;;;;;;;;20.40;80.80;;;19.78;73.39;95991.75;4876391;29;19926;-91
2023/07/31 20:03:23;;;;;;;;;;;20.40;80.80;;;19.77;73.63;95990.09;4922843;29;20282;-88
2023/07/31 20:05:51;;;;;;;;;;;20.40;80.90;;;19.73;73.78;95991.91;4891746;29;19927;-88
2023/07/31 20:08:19;;;;;;;;;;;20.40;81.00;;;19.71;73.86;95986.72;4893175;29;20309;-88
2023/07/31 20:10:49;;;;;;;;;;;20.30;81.00;;;19.68;73.82;95981.81;4910493;29;20420;-88
2023/07/31 20:13:17;;;;;;;;;;;20.30;81.20;;;19.68;74.01;95984.59;4895182;29;19927;-88
2023/07/31 20:15:45;;;;;;;;;;;20.30;81.20;;;19.67;73.85;95979.41;4910780;29;19927;-88
2023/07/31 20:18:13;;;;;;;;;;;20.20;81.10;;;19.66;73.60;95975.78;4925694;29;19927;-88
2023/07/31 20:20:42;;;;;;;;;;;20.30;81.10;;;19.66;73.75;95973.00;4908579;29;19956;-87
2023/07/31 20:23:10;;;;;;;;;;;20.30;81.20;;;19.66;73.52;95974.97;4887076;29;19934;-88
2023/07/31 20:25:38;;;;;;;;;;;20.20;81.10;;;19.63;74.15;95971.72;4891982;29;19927;-88
2023/07/31 20:28:08;;;;;;;;;;;20.20;81.20;;;19.65;73.98;95967.81;4892080;29;20382;-88
2023/07/31 20:30:36;;;;;;;;;;;20.20;81.20;;;19.63;73.95;95965.34;4891436;29;19931;-88
2023/07/31 20:33:07;;;;;;;;;;;20.20;81.20;;;19.66;73.93;95963.88;4891664;29;19934;-85
2023/07/31 20:35:37;;;;;;;;;;;20.30;81.30;;;19.68;73.49;95973.50;4909959;29;19933;-85
2023/07/31 20:38:05;;;;;;;;;;;20.30;81.10;;;19.67;73.48;95971.06;4902188;29;19935;-85
2023/07/31 20:40:33;;;;;;;;;;;20.30;81.00;;;19.67;73.67;95960.75;4907760;29;19927;-87
2023/07/31 20:43:01;;;;;;;;;;;20.30;81.10;;;19.68;73.45;95967.94;4922567;29;19935;-87
2023/07/31 20:45:32;;;;;;;;;;;20.30;81.00;;;19.66;73.53;95972.22;4906755;29;19927;-87
2023/07/31 20:48:00;;;;;;;;;;;20.30;80.90;;;19.65;73.43;95970.56;4891337;29;19927;-87
2023/07/31 20:50:29;;;;;;;;;;;20.20;80.60;;;19.63;73.46;95966.16;4907321;29;20309;-87
2023/07/31 20:52:58;;;;;;;;;;;20.20;80.70;;;19.66;73.74;95961.09;4891350;29;20384;-87
2023/07/31 20:55:25;;;;;;;;;;;20.20;80.80;;;19.66;73.26;95966.66;4906871;29;20005;-87
2023/07/31 20:57:53;;;;;;;;;;;20.20;80.80;;;19.62;73.47;95955.41;4907246;29;20487;-87
2023/07/31 21:00:21;;;;;;;;;;;20.20;80.90;;;19.63;73.78;95948.69;4906829;29;20436;-87
2023/07/31 21:02:51;;;;;;;;;;;20.20;80.90;;;19.66;73.45;95964.69;4868284;29;19932;-87
2023/07/31 21:05:19;;;;;;;;;;;20.30;80.90;;;19.67;73.40;95951.63;4890940;29;19935;-87
2023/07/31 21:07:47;;;;;;;;;;;20.30;80.80;;;19.69;73.41;95954.84;4906832;29;19938;-87
2023/07/31 21:10:16;;;;;;;;;;;20.30;80.60;;;19.68;73.40;95948.50;4860375;29;19927;-87
2023/07/31 21:12:44;;;;;;;;;;;20.30;80.60;;;19.69;73.34;95954.84;4906245;29;19931;-87
2023/07/31 21:15:13;;;;;;;;;;;20.30;80.70;;;19.67;73.36;95957.19;4891039;29;19927;-87
2023/07/31 21:17:41;;;;;;;;;;;20.30;80.70;;;19.65;73.32;95954.72;4883657;29;19928;-87
2023/07/31 21:20:11;;;;;;;;;;;20.30;80.90;;;19.60;73.46;95958.50;4875001;29;19938;-87
2023/07/31 21:22:39;;;;;;;;;;;20.20;80.80;;;19.61;73.37;95968.47;4906699;29;19934;-87
2023/07/31 21:25:08;;;;;;;;;;;20.20;80.80;;;19.60;73.56;95957.69;4875204;29;19927;-87
2023/07/31 21:27:36;;;;;;;;;;;20.20;80.90;;;19.56;73.60;95960.31;4875587;29;20369;-87
2023/07/31 21:30:05;;;;;;;;;;;20.20;80.90;;;19.53;73.76;95963.78;4875220;29;19927;-87
2023/07/31 21:32:34;;;;;;;;;;;20.20;81.00;;;19.50;73.56;95964.44;4871628;29;20394;-87
2023/07/31 21:35:02;;;;;;;;;;;20.10;81.00;;;19.50;73.72;95966.38;4874936;29;19928;-87
2023/07/31 21:37:32;;;;;;;;;;;20.10;81.10;;;19.47;73.65;95954.00;4890379;29;19927;-87
2023/07/31 21:40:00;;;;;;;;;;;20.10;81.20;;;19.50;73.92;95970.00;4875305;29;20346;-87
2023/07/31 21:42:28;;;;;;;;;;;20.10;81.20;;;19.48;73.93;95963.97;4874988;29;20305;-87
2023/07/31 21:44:56;;;;;;;;;;;20.10;81.30;;;19.47;73.60;95962.34;4875198;29;20396;-87
2023/07/31 21:47:24;;;;;;;;;;;20.10;81.20;;;19.47;73.76;95965.09;4898503;29;19950;-87
2023/07/31 21:49:52;;;;;;;;;;;20.10;81.20;;;19.46;73.91;95969.03;4890117;29;19927;-87
2023/07/31 21:52:20;;;;;;;;;;;20.10;81.10;;;19.47;73.60;95971.50;4889984;29;19950;-87
2023/07/31 21:54:50;;;;;;;;;;;20.10;81.20;;;19.43;73.47;95975.25;4890716;29;20302;-87
2023/07/31 21:57:18;;;;;;;;;;;20.00;80.90;;;19.40;73.83;95965.63;4890112;29;19927;-87
2023/07/31 21:59:46;;;;;;;;;;;20.00;81.10;;;19.39;73.71;95972.31;4874762;29;20403;-87
2023/07/31 22:02:15;;;;;;;;;;;20.00;81.10;;;19.36;73.75;95961.09;4859134;29;19927;-87
2023/07/31 22:04:44;;;;;;;;;;;20.00;81.20;;;19.32;73.87;95964.50;4889943;29;20387;-87
2023/07/31 22:07:12;;;;;;;;;;;20.00;81.20;;;19.34;73.79;95963.38;4874716;29;19927;-87
2023/07/31 22:09:40;;;;;;;;;;;19.90;81.20;;;19.31;73.92;95960.09;4874847;29;19927;-87
2023/07/31 22:12:10;;;;;;;;;;;19.90;81.30;;;19.28;73.79;95948.88;4889970;29;19931;-87
2023/07/31 22:14:38;;;;;;;;;;;19.90;81.20;;;19.28;73.63;95949.69;4904338;29;20428;-87
2023/07/31 22:17:07;;;;;;;;;;;19.90;81.20;;;19.25;73.50;95952.31;4905383;29;19934;-87
2023/07/31 22:19:35;;;;;;;;;;;19.90;81.20;;;19.24;73.71;95951.50;4905689;29;20405;-86
2023/07/31 22:22:04;;;;;;;;;;;19.80;81.00;;;19.21;73.89;95963.25;4889525;29;19928;-87
2023/07/31 22:24:32;;;;;;;;;;;19.80;81.10;;;19.20;73.76;95963.59;4905267;29;19927;-87
2023/07/31 22:27:00;;;;;;;;;;;19.80;81.20;;;19.20;73.88;95958.84;4921370;29;19950;-87
2023/07/31 22:29:30;;;;;;;;;;;19.80;81.20;;;19.17;73.63;95954.78;4905320;29;20020;-86
2023/07/31 22:31:58;;;;;;;;;;;19.80;81.20;;;19.16;74.00;95967.03;4904408;29;19942;-87
2023/07/31 22:34:26;;;;;;;;;;;19.80;81.40;;;19.14;73.91;95954.66;4890020;29;19927;-86
2023/07/31 22:36:54;;;;;;;;;;;19.70;81.50;;;19.13;74.09;95959.38;4905585;29;19935;-87
2023/07/31 22:39:23;;;;;;;;;;;19.70;81.50;;;19.07;74.17;95955.16;4889541;29;19928;-86
2023/07/31 22:41:51;;;;;;;;;;;19.70;81.60;;;19.09;74.16;95949.28;4873849;29;19927;-87
2023/07/31 22:44:19;;;;;;;;;;;19.70;81.60;;;19.07;73.94;95940.47;4897096;29;19938;-87
2023/07/31 22:46:48;;;;;;;;;;;19.70;81.60;;;19.07;74.15;95934.91;4873941;29;19927;-86
2023/07/31 22:49:17;;;;;;;;;;;19.70;81.60;;;19.09;73.95;95946.50;4889436;29;19927;-86
2023/07/31 22:51:45;;;;;;;;;;;19.70;81.60;;;19.06;73.90;95938.84;4873777;29;20314;-86
2023/07/31 22:54:13;;;;;;;;;;;19.70;81.60;;;19.05;73.95;95946.34;4873956;29;19927;-86
2023/07/31 22:56:41;;;;;;;;;;;19.70;81.60;;;19.07;73.94;95934.91;4874039;29;19927;-87